Terminal Aerodrome Forecast
Issued by NWS

Home | Current Version | Previous Version | Text Only | Print | Product List | Glossary On
Versions: 1 2 3 4 5 6 7 8 9 10 11 12 13
000
FTAK31 PAFA 232117 AAA
TAFAMC
TAF AMD
PAMC 232117Z 2321/2418 18005KT P6SM -RA BKN025 OVC060=

USA.gov is the U.S. government's official web portal to all federal, state and local government web resources and services.